createdAt,value
2023-04-19T00:01:26.491Z,72.46
2023-04-19T00:03:59.227Z,72.47
2023-04-19T00:06:32.062Z,72.06
2023-04-19T00:09:05.457Z,71.96
2023-04-19T00:11:38.010Z,72.07
2023-04-19T00:14:10.552Z,71.89
2023-04-19T00:16:43.117Z,72.22
2023-04-19T00:19:15.705Z,72.35
2023-04-19T00:21:48.388Z,72.55
2023-04-19T00:24:21.190Z,72.22
2023-04-19T00:26:54.083Z,72.30
2023-04-19T00:29:27.544Z,72.45
2023-04-19T00:32:00.043Z,72.14
2023-04-19T00:34:33.284Z,72.37
2023-04-19T00:37:06.849Z,72.46
2023-04-19T00:39:39.394Z,72.50
2023-04-19T00:42:11.835Z,72.26
2023-04-19T00:44:45.176Z,72.16
2023-04-19T00:47:17.634Z,72.43
2023-04-19T00:49:50.251Z,72.61
2023-04-19T00:52:23.617Z,72.70
2023-04-19T00:54:56.093Z,72.75
2023-04-19T00:57:28.618Z,72.87
2023-04-19T01:00:01.157Z,72.60
2023-04-19T01:02:34.536Z,72.37
2023-04-19T01:05:08.189Z,72.33
2023-04-19T01:07:40.839Z,72.17
2023-04-19T01:10:13.436Z,72.16
2023-04-19T01:12:46.758Z,72.34
2023-04-19T01:15:19.298Z,72.35
2023-04-19T01:17:53.511Z,72.36
2023-04-19T01:20:26.998Z,72.57
2023-04-19T01:23:00.117Z,72.60
2023-04-19T01:25:33.128Z,72.66
2023-04-19T01:28:06.750Z,72.75
2023-04-19T01:30:39.469Z,72.39
2023-04-19T01:33:12.116Z,72.31
2023-04-19T01:35:45.173Z,72.37
2023-04-19T01:38:19.074Z,72.31
2023-04-19T01:40:51.676Z,72.48
2023-04-19T01:43:24.129Z,72.94
2023-04-19T01:45:57.013Z,73.11
2023-04-19T01:48:29.430Z,73.29
2023-04-19T01:51:02.146Z,73.39
2023-04-19T01:53:34.941Z,73.61
2023-04-19T01:56:08.593Z,73.62
2023-04-19T01:58:42.165Z,73.55
2023-04-19T02:01:14.881Z,73.59
2023-04-19T02:03:47.540Z,73.55
2023-04-19T02:06:20.021Z,73.58
2023-04-19T02:08:54.567Z,73.63
2023-04-19T02:11:28.179Z,73.73
2023-04-19T02:14:01.080Z,73.88
2023-04-19T02:16:35.758Z,74.18
2023-04-19T02:19:20.306Z,74.40
2023-04-19T02:21:55.520Z,74.82
2023-04-19T02:24:28.493Z,75.31
2023-04-19T02:27:02.253Z,75.71
2023-04-19T02:29:46.766Z,75.99
2023-04-19T02:32:19.191Z,76.04
2023-04-19T02:34:52.231Z,76.18
2023-04-19T02:37:24.727Z,76.47
2023-04-19T02:39:57.385Z,76.54
2023-04-19T02:42:29.898Z,76.49
2023-04-19T02:45:02.321Z,76.50
2023-04-19T02:47:34.891Z,76.50
2023-04-19T02:50:08.350Z,76.37
2023-04-19T02:52:42.962Z,76.24
2023-04-19T02:55:15.501Z,76.20
2023-04-19T02:57:48.544Z,76.45
2023-04-19T03:00:21.181Z,76.48
2023-04-19T03:02:56.301Z,76.40
2023-04-19T03:05:28.754Z,76.38
2023-04-19T03:08:01.399Z,76.44
2023-04-19T03:10:34.198Z,76.49
2023-04-19T03:13:07.159Z,76.43
2023-04-19T03:15:40.059Z,76.49
2023-04-19T03:18:13.302Z,76.58
2023-04-19T03:20:46.920Z,76.63
2023-04-19T03:23:19.283Z,76.59
2023-04-19T03:25:52.071Z,76.67
2023-04-19T03:28:26.107Z,76.74
2023-04-19T03:31:00.156Z,76.73
2023-04-19T03:33:33.006Z,76.65
2023-04-19T03:36:06.191Z,76.55
2023-04-19T03:38:39.173Z,76.67
2023-04-19T03:41:26.906Z,76.61
2023-04-19T03:44:06.950Z,76.56
2023-04-19T03:46:40.801Z,76.30
2023-04-19T03:49:13.694Z,76.62
2023-04-19T03:51:47.360Z,76.69
2023-04-19T03:54:20.099Z,76.39
2023-04-19T03:56:52.510Z,76.12
2023-04-19T03:59:34.473Z,76.09
2023-04-19T04:02:08.839Z,75.59
2023-04-19T04:04:41.940Z,75.26
2023-04-19T04:07:14.618Z,75.27
2023-04-19T04:09:49.240Z,75.17
2023-04-19T04:12:21.837Z,75.09
2023-04-19T04:14:56.026Z,74.34
2023-04-19T04:17:28.841Z,73.99
2023-04-19T04:20:01.683Z,73.75
2023-04-19T04:22:35.630Z,73.71
2023-04-19T04:25:08.933Z,73.36
2023-04-19T04:27:47.974Z,73.04
2023-04-19T04:30:21.993Z,72.97
2023-04-19T04:32:56.481Z,72.86
2023-04-19T04:35:30.205Z,72.71
2023-04-19T04:38:17.478Z,72.86
2023-04-19T04:40:42.311Z,72.77
2023-04-19T04:43:14.799Z,73.42
2023-04-19T04:45:47.491Z,72.76
2023-04-19T04:48:20.420Z,71.94
2023-04-19T04:50:52.986Z,71.42
2023-04-19T04:53:28.564Z,72.10
2023-04-19T04:56:01.016Z,72.64
2023-04-19T04:58:34.541Z,72.21
2023-04-19T05:01:08.859Z,71.96
2023-04-19T05:03:43.258Z,71.17
2023-04-19T05:06:17.518Z,69.37
2023-04-19T05:08:50.131Z,69.37
2023-04-19T05:11:24.447Z,68.52
2023-04-19T05:13:57.379Z,66.71
2023-04-19T05:16:30.156Z,65.06
2023-04-19T05:19:02.668Z,65.05
2023-04-19T05:21:37.469Z,63.86
2023-04-19T05:24:10.371Z,62.37
2023-04-19T05:26:43.328Z,61.50
2023-04-19T05:29:16.589Z,58.57
2023-04-19T05:31:54.052Z,57.30
2023-04-19T05:34:31.585Z,57.12
2023-04-19T05:37:06.701Z,55.87
2023-04-19T05:39:39.213Z,56.31
2023-04-19T05:42:12.037Z,55.22
2023-04-19T05:44:45.440Z,54.22
2023-04-19T05:47:18.444Z,54.60
2023-04-19T05:49:59.121Z,55.24
2023-04-19T05:52:39.537Z,54.13
2023-04-19T05:55:12.661Z,53.17
2023-04-19T05:57:46.510Z,52.11
2023-04-19T06:00:19.192Z,50.95
2023-04-19T06:02:53.650Z,51.04
2023-04-19T06:05:26.849Z,51.22
2023-04-19T06:08:02.732Z,50.80
2023-04-19T06:10:51.837Z,50.26
2023-04-19T06:13:11.995Z,50.17
2023-04-19T06:15:45.608Z,50.22
2023-04-19T06:18:18.765Z,49.74
2023-04-19T06:20:53.429Z,49.42
2023-04-19T06:23:27.079Z,49.11
2023-04-19T06:25:59.571Z,48.68
2023-04-19T06:28:32.814Z,48.72
2023-04-19T06:31:05.960Z,48.80
2023-04-19T06:33:38.986Z,47.95
2023-04-19T06:36:11.598Z,47.93
2023-04-19T06:38:44.796Z,47.28
2023-04-19T06:41:17.965Z,47.18
2023-04-19T06:43:50.488Z,46.13
2023-04-19T06:46:23.003Z,45.54
2023-04-19T06:48:55.617Z,44.50
2023-04-19T06:51:28.150Z,43.79
2023-04-19T06:54:00.811Z,45.15
2023-04-19T06:56:50.663Z,44.70
2023-04-19T06:59:23.487Z,43.96
2023-04-19T07:01:57.732Z,43.19
2023-04-19T07:04:30.442Z,42.83
2023-04-19T07:07:03.042Z,44.26
2023-04-19T07:09:35.423Z,42.97
2023-04-19T07:12:08.512Z,42.51
2023-04-19T07:14:41.007Z,42.49
2023-04-19T07:17:14.657Z,42.55
2023-04-19T07:19:51.712Z,42.45
2023-04-19T07:22:24.155Z,42.07
2023-04-19T07:24:56.618Z,42.78
2023-04-19T07:27:29.474Z,41.63
2023-04-19T07:30:02.060Z,41.40
2023-04-19T07:32:35.281Z,41.73
2023-04-19T07:35:08.693Z,42.21
2023-04-19T07:37:41.790Z,41.20
2023-04-19T07:40:35.979Z,40.56
2023-04-19T07:43:08.474Z,39.79
2023-04-19T07:45:40.946Z,39.42
2023-04-19T07:48:15.400Z,39.66
2023-04-19T07:50:48.430Z,39.81
2023-04-19T07:53:20.920Z,40.11
2023-04-19T07:55:53.484Z,40.56
2023-04-19T07:58:27.144Z,40.66
2023-04-19T08:00:59.537Z,39.86
2023-04-19T08:03:37.244Z,39.54
2023-04-19T08:06:10.244Z,39.78
2023-04-19T08:08:42.932Z,40.16
2023-04-19T08:11:15.706Z,39.50
2023-04-19T08:14:02.906Z,38.89
2023-04-19T08:16:59.195Z,39.95
2023-04-19T08:18:56.747Z,39.75
2023-04-19T08:21:40.125Z,38.58
2023-04-19T08:24:03.293Z,37.50
2023-04-19T08:26:35.965Z,37.91
2023-04-19T08:29:08.573Z,37.90
2023-04-19T08:31:43.471Z,38.84
2023-04-19T08:34:15.554Z,38.19
2023-04-19T08:36:59.916Z,39.02
2023-04-19T08:39:32.345Z,38.50
2023-04-19T08:42:07.069Z,37.93
2023-04-19T08:44:36.739Z,37.74
2023-04-19T08:47:08.243Z,38.33
2023-04-19T08:49:43.362Z,36.84
2023-04-19T08:52:16.466Z,37.21
2023-04-19T08:54:49.305Z,38.18
2023-04-19T08:57:34.114Z,37.92
2023-04-19T09:00:08.651Z,37.86
2023-04-19T09:02:49.812Z,37.25
2023-04-19T09:05:22.752Z,37.43
2023-04-19T09:07:56.227Z,37.29
2023-04-19T09:10:28.998Z,37.96
2023-04-19T09:13:07.754Z,38.74
2023-04-19T09:15:43.688Z,38.10
2023-04-19T09:18:16.703Z,39.67
2023-04-19T09:20:49.236Z,38.65
2023-04-19T09:23:21.910Z,35.27
2023-04-19T09:28:37.279Z,34.77
2023-04-19T09:31:39.182Z,34.77
2023-04-19T09:33:50.196Z,36.47
2023-04-19T09:36:33.800Z,36.62
2023-04-19T09:39:06.418Z,36.68
2023-04-19T09:41:53.824Z,37.38
2023-04-19T09:47:00.563Z,38.35
2023-04-19T09:52:07.620Z,36.64
2023-04-19T09:54:40.173Z,36.21
2023-04-19T09:57:12.672Z,36.73
2023-04-19T09:59:45.312Z,36.84
2023-04-19T10:02:17.843Z,36.18
2023-04-19T10:07:30.546Z,36.49
2023-04-19T10:10:11.671Z,36.78
2023-04-19T10:15:33.784Z,36.51
2023-04-19T10:18:02.879Z,36.78
2023-04-19T10:20:59.018Z,38.16
2023-04-19T10:23:31.609Z,38.33
2023-04-19T10:26:04.336Z,39.17
2023-04-19T10:28:38.837Z,39.65
2023-04-19T10:31:13.294Z,40.47
2023-04-19T10:33:44.979Z,41.34
2023-04-19T10:36:17.860Z,41.27
2023-04-19T10:38:52.152Z,41.71
2023-04-19T10:41:23.776Z,41.99
2023-04-19T10:44:01.583Z,41.71
2023-04-19T10:46:36.975Z,41.26
2023-04-19T10:49:10.213Z,41.23
2023-04-19T10:51:44.257Z,40.14
2023-04-19T10:54:35.964Z,38.94
2023-04-19T10:57:11.540Z,38.79
2023-04-19T10:59:44.516Z,38.16
2023-04-19T11:02:30.960Z,37.21
2023-04-19T11:05:03.636Z,37.48
2023-04-19T11:07:39.571Z,37.65
2023-04-19T11:10:11.886Z,37.68
2023-04-19T11:12:44.488Z,37.56
2023-04-19T11:15:16.205Z,37.31
2023-04-19T11:18:08.860Z,38.52
2023-04-19T11:20:26.346Z,38.96
2023-04-19T11:22:59.796Z,39.80
2023-04-19T11:25:34.195Z,40.62
2023-04-19T11:28:07.014Z,42.23
2023-04-19T11:30:38.658Z,41.70
2023-04-19T11:33:10.464Z,40.85
2023-04-19T11:35:43.811Z,40.63
2023-04-19T11:38:15.567Z,40.22
2023-04-19T11:40:47.325Z,40.19
2023-04-19T11:43:19.569Z,39.66
2023-04-19T11:45:51.169Z,39.98
2023-04-19T11:48:23.143Z,40.54
2023-04-19T11:50:54.832Z,40.94
2023-04-19T11:53:27.510Z,41.63
2023-04-19T11:56:06.627Z,41.41
2023-04-19T11:58:51.499Z,41.23
2023-04-19T12:01:25.234Z,41.92
2023-04-19T12:03:57.799Z,43.00
2023-04-19T12:06:32.056Z,43.50
2023-04-19T12:09:07.241Z,44.11
2023-04-19T12:11:52.860Z,44.57
2023-04-19T12:14:26.178Z,44.78
2023-04-19T12:17:15.762Z,45.44
2023-04-19T12:19:48.196Z,45.69
2023-04-19T12:22:25.076Z,45.91
2023-04-19T12:24:56.727Z,46.85
2023-04-19T12:27:28.318Z,47.42
2023-04-19T12:30:00.153Z,47.91
2023-04-19T12:32:32.382Z,48.69
2023-04-19T12:35:03.962Z,48.79
2023-04-19T12:37:35.768Z,49.20
2023-04-19T12:40:08.962Z,49.33
2023-04-19T12:42:40.801Z,49.75
2023-04-19T12:45:13.235Z,50.23
2023-04-19T12:47:45.319Z,50.90
2023-04-19T12:50:17.163Z,51.67
2023-04-19T12:52:48.898Z,52.43
2023-04-19T12:55:20.843Z,52.98
2023-04-19T12:57:52.457Z,54.09
2023-04-19T13:00:24.819Z,54.62
2023-04-19T13:02:56.800Z,54.92
2023-04-19T13:05:28.517Z,55.69
2023-04-19T13:08:00.448Z,56.17
2023-04-19T13:10:32.524Z,56.66
2023-04-19T13:13:04.196Z,57.14
2023-04-19T13:15:35.798Z,57.02
2023-04-19T13:18:07.828Z,57.16
2023-04-19T13:20:39.777Z,57.93
2023-04-19T13:23:11.819Z,57.98
2023-04-19T13:25:43.390Z,58.30
2023-04-19T13:28:15.282Z,58.27
2023-04-19T13:30:46.970Z,57.94
2023-04-19T13:33:18.583Z,57.65
2023-04-19T13:35:50.173Z,57.86
2023-04-19T13:38:21.930Z,58.11
2023-04-19T13:40:53.785Z,58.81
2023-04-19T13:43:25.326Z,59.27
2023-04-19T13:45:57.172Z,59.62
2023-04-19T13:48:29.185Z,59.60
2023-04-19T13:53:45.113Z,59.42
2023-04-19T13:56:16.757Z,59.80
2023-04-19T13:58:48.384Z,59.83
2023-04-19T14:01:20.482Z,59.61
2023-04-19T14:03:52.296Z,59.84
2023-04-19T14:06:24.117Z,59.91
2023-04-19T14:08:56.351Z,60.16
2023-04-19T14:11:28.083Z,60.46
2023-04-19T14:14:00.550Z,60.46
2023-04-19T14:16:32.279Z,60.41
2023-04-19T14:19:04.210Z,60.55
2023-04-19T14:21:35.743Z,60.67
2023-04-19T14:24:08.172Z,60.73
2023-04-19T14:26:39.947Z,60.13
2023-04-19T14:29:11.685Z,59.54
2023-04-19T14:31:43.576Z,59.66
2023-04-19T14:34:15.233Z,59.54
2023-04-19T14:36:47.607Z,59.43
2023-04-19T14:39:20.405Z,59.15
2023-04-19T14:41:52.265Z,58.10
2023-04-19T14:44:24.153Z,57.59
2023-04-19T14:46:56.430Z,57.47
2023-04-19T14:49:28.221Z,57.70
2023-04-19T14:52:00.123Z,57.95
2023-04-19T14:54:31.824Z,58.33
2023-04-19T14:57:03.950Z,57.86
2023-04-19T14:59:35.719Z,57.45
2023-04-19T15:02:07.806Z,56.81
2023-04-19T15:04:41.529Z,56.87
2023-04-19T15:07:14.468Z,56.76
2023-04-19T15:09:46.105Z,56.82
2023-04-19T15:12:17.957Z,56.99
2023-04-19T15:14:49.904Z,56.63
2023-04-19T15:17:21.930Z,56.53
2023-04-19T15:19:53.986Z,56.31
2023-04-19T15:22:25.836Z,56.24
2023-04-19T15:24:57.960Z,55.93
2023-04-19T15:27:29.533Z,55.97
2023-04-19T15:30:01.122Z,55.84
2023-04-19T15:32:34.631Z,55.83
2023-04-19T15:35:07.006Z,55.00
2023-04-19T15:37:40.436Z,55.21
2023-04-19T15:40:14.331Z,55.41
2023-04-19T15:42:46.557Z,55.46
2023-04-19T15:45:18.773Z,55.00
2023-04-19T15:47:50.732Z,54.51
2023-04-19T15:50:22.696Z,54.70
2023-04-19T15:52:54.502Z,54.35
2023-04-19T15:55:26.530Z,54.35
2023-04-19T15:57:58.106Z,54.39
2023-04-19T16:00:30.318Z,54.40
2023-04-19T16:03:02.065Z,54.44
2023-04-19T16:05:34.689Z,54.68
2023-04-19T16:08:08.295Z,54.91
2023-04-19T16:10:41.017Z,55.24
2023-04-19T16:13:16.010Z,55.53
2023-04-19T16:15:48.027Z,55.78
2023-04-19T16:18:19.764Z,56.05
2023-04-19T16:20:51.478Z,56.38
2023-04-19T16:23:25.167Z,56.65
2023-04-19T16:25:57.291Z,56.72
2023-04-19T16:28:29.678Z,56.93
2023-04-19T16:31:01.451Z,57.24
2023-04-19T16:33:33.278Z,57.55
2023-04-19T16:36:05.016Z,57.68
2023-04-19T16:38:36.944Z,57.97
2023-04-19T16:41:08.584Z,58.38
2023-04-19T16:43:40.191Z,58.77
2023-04-19T16:46:12.369Z,59.11
2023-04-19T16:48:44.333Z,59.63
2023-04-19T16:51:15.910Z,59.94
2023-04-19T16:53:47.911Z,60.40
2023-04-19T16:56:19.768Z,60.59
2023-04-19T16:58:51.775Z,60.60
2023-04-19T17:01:24.037Z,60.89
2023-04-19T17:03:56.240Z,61.31
2023-04-19T17:06:28.793Z,61.51
2023-04-19T17:09:04.140Z,61.25
2023-04-19T17:11:36.269Z,61.40
2023-04-19T17:14:08.007Z,61.44
2023-04-19T17:16:41.039Z,61.55
2023-04-19T17:19:13.015Z,61.37
2023-04-19T17:21:45.554Z,61.66
2023-04-19T17:24:18.196Z,61.83
2023-04-19T17:26:50.282Z,61.77
2023-04-19T17:29:21.950Z,61.70
2023-04-19T17:31:53.844Z,61.52
2023-04-19T17:34:26.078Z,61.46
2023-04-19T17:36:59.459Z,61.85
2023-04-19T17:39:31.910Z,60.01
2023-04-19T17:42:04.854Z,58.89
2023-04-19T17:44:37.169Z,58.17
2023-04-19T17:47:08.776Z,57.33
2023-04-19T17:49:51.109Z,56.30
2023-04-19T17:52:22.613Z,55.32
2023-04-19T17:54:54.226Z,55.17
2023-04-19T17:57:28.357Z,55.59
2023-04-19T18:00:00.507Z,55.93
2023-04-19T18:02:33.099Z,55.60
2023-04-19T18:05:05.135Z,55.30
2023-04-19T18:07:37.735Z,55.22
2023-04-19T18:10:11.390Z,55.45
2023-04-19T18:12:45.413Z,55.48
2023-04-19T18:15:16.998Z,55.72
2023-04-19T18:17:49.392Z,55.95
2023-04-19T18:20:21.537Z,56.50
2023-04-19T18:22:54.015Z,56.94
2023-04-19T18:25:25.770Z,57.34
2023-04-19T18:27:57.617Z,58.02
2023-04-19T18:30:31.157Z,58.22
2023-04-19T18:33:02.794Z,58.80
2023-04-19T18:35:37.863Z,59.56
2023-04-19T18:38:11.366Z,60.05
2023-04-19T18:40:43.776Z,60.02
2023-04-19T18:43:16.420Z,60.47
2023-04-19T18:45:56.571Z,60.59
2023-04-19T18:48:29.480Z,61.08
2023-04-19T18:51:01.527Z,61.21
2023-04-19T18:53:33.430Z,61.42
2023-04-19T18:56:09.117Z,61.72
2023-04-19T18:58:42.686Z,62.05
2023-04-19T19:01:15.679Z,62.36
2023-04-19T19:04:10.660Z,62.88
2023-04-19T19:06:22.268Z,62.99
2023-04-19T19:08:55.471Z,63.37
2023-04-19T19:11:51.821Z,63.44
2023-04-19T19:14:00.401Z,63.23
2023-04-19T19:16:32.565Z,63.31
2023-04-19T19:19:04.604Z,63.34
2023-04-19T19:21:36.566Z,63.18
2023-04-19T19:24:08.819Z,63.32
2023-04-19T19:26:41.080Z,63.11
2023-04-19T19:29:16.276Z,62.90
2023-04-19T19:31:46.286Z,63.03
2023-04-19T19:34:25.756Z,62.73
2023-04-19T19:36:52.436Z,62.59
2023-04-19T19:39:24.666Z,62.73
2023-04-19T19:42:05.836Z,62.92
2023-04-19T19:44:30.331Z,62.71
2023-04-19T19:47:01.946Z,62.34
2023-04-19T19:49:51.966Z,62.21
2023-04-19T19:52:09.227Z,62.01
2023-04-19T19:54:41.155Z,62.00
2023-04-19T19:58:01.571Z,61.80
2023-04-19T19:59:51.739Z,61.92
2023-04-19T20:02:21.734Z,62.24
2023-04-19T20:04:54.604Z,62.13
2023-04-19T20:07:47.609Z,62.09
2023-04-19T20:10:00.414Z,62.24
2023-04-19T20:12:32.285Z,62.41
2023-04-19T20:15:05.887Z,62.60
2023-04-19T20:17:40.501Z,62.85
2023-04-19T20:20:13.074Z,63.07
2023-04-19T20:22:44.870Z,63.14
2023-04-19T20:25:16.426Z,62.99
2023-04-19T20:27:48.097Z,63.16
2023-04-19T20:30:19.638Z,63.22
2023-04-19T20:32:51.437Z,63.51
2023-04-19T20:35:23.177Z,63.17
2023-04-19T20:37:54.808Z,63.07
2023-04-19T20:40:26.378Z,62.88
2023-04-19T20:42:57.926Z,62.72
2023-04-19T20:45:30.040Z,62.78
2023-04-19T20:48:01.726Z,63.00
2023-04-19T20:50:33.724Z,62.51
2023-04-19T20:53:05.751Z,62.38
2023-04-19T20:55:38.341Z,62.10
2023-04-19T20:58:10.910Z,61.75
2023-04-19T21:00:42.485Z,61.55
2023-04-19T21:03:14.346Z,61.37
2023-04-19T21:05:46.331Z,60.82
2023-04-19T21:08:19.026Z,61.03
2023-04-19T21:10:50.646Z,61.04
2023-04-19T21:13:23.922Z,61.33
2023-04-19T21:15:55.815Z,61.44
2023-04-19T21:18:29.173Z,61.65
2023-04-19T21:21:00.869Z,61.52
2023-04-19T21:23:32.804Z,61.54
2023-04-19T21:26:04.868Z,61.49
2023-04-19T21:28:37.110Z,61.59
2023-04-19T21:31:08.760Z,61.72
2023-04-19T21:33:40.689Z,61.59
2023-04-19T21:36:12.300Z,61.55
2023-04-19T21:38:44.109Z,61.64
2023-04-19T21:41:16.104Z,62.12
2023-04-19T21:43:47.649Z,62.05
2023-04-19T21:46:19.266Z,62.02
2023-04-19T21:48:51.458Z,61.84
2023-04-19T21:51:24.100Z,61.81
2023-04-19T21:53:55.608Z,61.63
2023-04-19T21:56:27.104Z,61.67
2023-04-19T21:58:58.752Z,61.61
2023-04-19T22:01:30.283Z,61.61
2023-04-19T22:04:02.381Z,61.77
2023-04-19T22:06:34.152Z,61.72
2023-04-19T22:09:06.110Z,61.80
2023-04-19T22:11:38.301Z,61.97
2023-04-19T22:14:09.964Z,61.99
2023-04-19T22:16:42.275Z,61.97
2023-04-19T22:19:15.584Z,62.13
2023-04-19T22:21:47.766Z,62.04
2023-04-19T22:24:19.444Z,62.00
2023-04-19T22:26:53.065Z,62.13
2023-04-19T22:29:24.666Z,62.51
2023-04-19T22:31:57.274Z,62.67
2023-04-19T22:34:28.902Z,62.64
2023-04-19T22:37:00.594Z,62.80
2023-04-19T22:39:32.379Z,62.63
2023-04-19T22:42:04.228Z,62.69
2023-04-19T22:44:37.375Z,62.87
2023-04-19T22:47:08.886Z,63.06
2023-04-19T22:49:43.137Z,62.73
2023-04-19T22:52:15.718Z,62.73
2023-04-19T22:54:47.244Z,62.41
2023-04-19T22:57:18.756Z,62.27
2023-04-19T22:59:50.327Z,61.94
2023-04-19T23:02:22.415Z,61.94
2023-04-19T23:04:54.450Z,62.00
2023-04-19T23:07:26.145Z,61.59
2023-04-19T23:09:57.740Z,61.20
2023-04-19T23:12:31.192Z,61.27
2023-04-19T23:15:03.938Z,61.22
2023-04-19T23:17:36.206Z,60.84
2023-04-19T23:20:13.056Z,60.90
2023-04-19T23:22:44.676Z,60.43
2023-04-19T23:25:16.477Z,60.51
2023-04-19T23:27:49.562Z,60.77
2023-04-19T23:30:21.388Z,60.77
2023-04-19T23:32:53.040Z,60.96
2023-04-19T23:35:24.832Z,60.65
2023-04-19T23:37:56.386Z,60.64
2023-04-19T23:40:27.905Z,60.54
2023-04-19T23:42:59.396Z,60.46
2023-04-19T23:45:31.360Z,60.81
2023-04-19T23:48:03.079Z,60.51
2023-04-19T23:50:34.636Z,60.49
2023-04-19T23:53:07.270Z,60.38
2023-04-19T23:55:38.798Z,60.51
2023-04-19T23:58:10.599Z,60.46
